createdAt,value
2023-02-02T00:01:55.309Z,7.72
2023-02-02T00:04:28.701Z,7.68
2023-02-02T00:06:59.444Z,7.62
2023-02-02T00:09:32.844Z,7.71
2023-02-02T00:12:01.758Z,7.57
2023-02-02T00:14:31.860Z,7.46
2023-02-02T00:17:17.971Z,7.43
2023-02-02T00:19:47.164Z,7.10
2023-02-02T00:22:14.199Z,6.94
2023-02-02T00:24:41.207Z,6.80
2023-02-02T00:27:09.674Z,6.56
2023-02-02T00:29:36.776Z,6.95
2023-02-02T00:32:04.548Z,7.12
2023-02-02T00:34:32.409Z,7.26
2023-02-02T00:36:59.403Z,7.37
2023-02-02T00:39:26.974Z,7.33
2023-02-02T00:41:54.987Z,7.21
2023-02-02T00:44:41.055Z,7.16
2023-02-02T00:47:08.226Z,7.50
2023-02-02T00:49:35.418Z,7.59
2023-02-02T00:52:02.789Z,7.69
2023-02-02T00:54:30.213Z,7.71
2023-02-02T00:56:57.399Z,7.40
2023-02-02T00:59:25.255Z,7.28
2023-02-02T01:01:53.070Z,7.24
2023-02-02T01:04:19.999Z,7.08
2023-02-02T01:06:47.476Z,7.08
2023-02-02T01:09:14.916Z,6.87
2023-02-02T01:11:41.961Z,6.47
2023-02-02T01:14:09.707Z,6.31
2023-02-02T01:16:36.950Z,6.36
2023-02-02T01:19:04.315Z,6.44
2023-02-02T01:21:31.677Z,6.30
2023-02-02T01:23:59.017Z,6.41
2023-02-02T01:26:26.508Z,6.55
2023-02-02T01:28:54.603Z,6.52
2023-02-02T01:31:22.075Z,6.58
2023-02-02T01:33:50.228Z,6.67
2023-02-02T01:36:20.361Z,6.59
2023-02-02T01:38:48.752Z,6.73
2023-02-02T01:41:23.128Z,6.96
2023-02-02T01:43:55.439Z,6.99
2023-02-02T01:46:37.862Z,6.85
2023-02-02T01:49:10.226Z,7.08
2023-02-02T01:51:55.125Z,7.37
2023-02-02T01:54:27.131Z,7.35
2023-02-02T01:56:59.595Z,7.47
2023-02-02T01:59:29.031Z,7.32
2023-02-02T02:05:45.557Z,7.11
2023-02-02T02:09:51.519Z,7.27
2023-02-02T02:13:40.856Z,7.59
2023-02-02T02:17:30.427Z,7.80
2023-02-02T02:21:18.026Z,7.94
2023-02-02T02:25:25.536Z,8.16
2023-02-02T02:28:36.283Z,7.41
2023-02-02T02:32:25.167Z,5.99
2023-02-02T02:35:58.769Z,6.20
2023-02-02T02:39:37.990Z,6.30
2023-02-02T02:43:13.311Z,6.23
2023-02-02T02:47:03.974Z,6.41
2023-02-02T02:50:51.604Z,6.95
2023-02-02T02:54:38.946Z,7.11
2023-02-02T02:58:32.424Z,6.93
2023-02-02T03:02:25.813Z,6.57
2023-02-02T03:06:22.295Z,7.04
2023-02-02T03:10:15.052Z,7.08
2023-02-02T03:14:05.578Z,7.37
2023-02-02T03:17:53.438Z,7.58
2023-02-02T03:21:40.904Z,7.50
2023-02-02T03:25:33.288Z,7.93
2023-02-02T03:29:23.196Z,8.15
2023-02-02T03:33:10.700Z,8.17
2023-02-02T03:37:02.057Z,8.38
2023-02-02T03:40:49.814Z,7.73
2023-02-02T03:44:37.295Z,5.99
2023-02-02T03:48:04.516Z,5.75
2023-02-02T03:51:51.504Z,6.78
2023-02-02T03:55:34.334Z,7.30
2023-02-02T03:59:22.102Z,7.52
2023-02-02T04:03:09.150Z,7.83
2023-02-02T04:06:56.197Z,7.81
2023-02-02T04:10:43.351Z,7.91
2023-02-02T04:14:30.172Z,8.24
2023-02-02T04:18:17.184Z,8.48
2023-02-02T04:22:04.399Z,7.78
2023-02-02T04:25:51.665Z,6.52
2023-02-02T04:29:38.835Z,7.30
2023-02-02T04:33:25.889Z,7.79
2023-02-02T04:37:14.144Z,7.81
2023-02-02T04:41:02.423Z,7.85
2023-02-02T04:44:57.742Z,8.07
2023-02-02T04:48:45.205Z,8.23
2023-02-02T04:52:32.963Z,8.53
2023-02-02T04:56:22.820Z,6.87
2023-02-02T05:00:13.882Z,6.09
2023-02-02T05:04:02.709Z,6.86
2023-02-02T05:07:52.647Z,7.20
2023-02-02T05:11:48.863Z,7.52
2023-02-02T05:15:37.253Z,7.70
2023-02-02T05:19:24.797Z,7.62
2023-02-02T05:23:13.120Z,7.67
2023-02-02T05:27:05.054Z,7.98
2023-02-02T05:30:52.982Z,8.10
2023-02-02T05:34:40.797Z,8.05
2023-02-02T05:38:28.454Z,8.25
2023-02-02T05:42:15.798Z,8.48
2023-02-02T05:46:06.805Z,7.06
2023-02-02T05:49:56.180Z,6.75
2023-02-02T05:53:46.969Z,7.41
2023-02-02T05:57:34.778Z,7.43
2023-02-02T06:01:23.436Z,7.33
2023-02-02T06:05:11.156Z,6.96
2023-02-02T06:09:01.012Z,7.14
2023-02-02T06:12:52.629Z,7.16
2023-02-02T06:16:25.007Z,6.94
2023-02-02T06:20:12.549Z,6.92
2023-02-02T06:23:49.318Z,6.92
2023-02-02T06:27:18.594Z,6.74
2023-02-02T06:30:45.596Z,6.62
2023-02-02T06:34:37.581Z,6.69
2023-02-02T08:02:15.583Z,7.14
2023-02-02T08:06:02.988Z,6.50
2023-02-02T08:09:50.903Z,6.81
2023-02-02T08:13:38.408Z,6.92
2023-02-02T08:17:26.168Z,6.75
2023-02-02T08:21:19.952Z,6.68
2023-02-02T08:29:02.974Z,6.47
2023-02-02T08:32:56.100Z,6.22
2023-02-02T09:03:00.408Z,7.55
2023-02-02T09:06:50.161Z,7.12
2023-02-02T09:10:19.305Z,7.46
2023-02-02T09:14:09.829Z,7.42
2023-02-02T09:17:57.397Z,7.45
2023-02-02T09:21:45.299Z,7.50
2023-02-02T09:25:33.131Z,7.27
2023-02-02T09:29:25.983Z,7.65
2023-02-02T09:33:14.792Z,7.51
2023-02-02T09:37:07.747Z,7.31
2023-02-02T09:41:01.796Z,7.60
2023-02-02T09:44:47.832Z,7.71
2023-02-02T09:48:54.127Z,7.65
2023-02-02T09:52:41.911Z,7.50
2023-02-02T09:56:39.072Z,7.80
2023-02-02T10:00:33.172Z,7.70
2023-02-02T10:04:20.908Z,7.84
2023-02-02T10:08:12.008Z,7.77
2023-02-02T10:12:16.823Z,7.91
2023-02-02T10:16:29.723Z,7.99
2023-02-02T10:20:20.522Z,7.94
2023-02-02T10:24:09.356Z,7.44
2023-02-02T10:27:57.304Z,7.79
2023-02-02T10:31:45.444Z,7.92
2023-02-02T10:35:39.062Z,7.73
2023-02-02T10:39:38.872Z,7.89
2023-02-02T10:43:39.031Z,8.00
2023-02-02T10:47:12.525Z,7.97
2023-02-02T10:51:01.728Z,7.98
2023-02-02T10:54:58.550Z,8.10
2023-02-02T10:58:53.335Z,8.23
2023-02-02T11:02:42.295Z,8.30
2023-02-02T11:06:30.809Z,8.11
2023-02-02T11:14:09.914Z,8.18
2023-02-02T11:18:06.574Z,8.40
2023-02-02T11:22:03.523Z,8.43
2023-02-02T11:25:49.555Z,8.67
2023-02-02T11:29:38.157Z,8.85
2023-02-02T11:33:29.279Z,8.55
2023-02-02T11:37:20.793Z,6.59
2023-02-02T11:41:06.820Z,7.15
2023-02-02T11:45:00.971Z,7.79
2023-02-02T11:48:59.711Z,8.17
2023-02-02T11:52:50.362Z,8.26
2023-02-02T11:56:38.352Z,8.25
2023-02-02T12:00:29.188Z,8.22
2023-02-02T12:04:35.456Z,8.15
2023-02-02T12:08:29.843Z,8.17
2023-02-02T12:12:35.978Z,8.21
2023-02-02T12:16:25.046Z,8.07
2023-02-02T12:20:30.738Z,8.33
2023-02-02T12:24:31.259Z,8.39
2023-02-02T12:32:26.856Z,8.49
2023-02-02T12:36:11.186Z,8.38
2023-02-02T12:42:55.915Z,6.92
2023-02-02T12:46:46.794Z,7.42
2023-02-02T12:54:34.154Z,7.42
2023-02-02T12:57:58.135Z,7.34
2023-02-02T13:02:04.094Z,7.73
2023-02-02T13:09:14.671Z,8.25
2023-02-02T13:13:05.502Z,8.34
2023-02-02T13:16:53.214Z,7.84
2023-02-02T13:20:43.987Z,7.68
2023-02-02T13:23:59.025Z,7.16
2023-02-02T13:27:48.538Z,7.24
2023-02-02T13:37:41.279Z,7.05
2023-02-02T13:44:36.972Z,6.85
2023-02-02T13:54:52.649Z,7.32
2023-02-02T13:58:48.555Z,7.83
2023-02-02T14:08:35.666Z,8.41
2023-02-02T14:15:42.471Z,6.57
2023-02-02T14:19:58.560Z,7.35
2023-02-02T14:26:47.023Z,8.16
2023-02-02T14:34:22.145Z,7.49
2023-02-02T14:37:33.246Z,6.13
2023-02-02T14:41:28.835Z,6.21
2023-02-02T14:45:19.651Z,7.04
2023-02-02T14:49:16.877Z,7.31
2023-02-02T14:53:07.966Z,7.32
2023-02-02T14:57:00.477Z,6.90
2023-02-02T15:00:48.995Z,7.28
2023-02-02T15:04:59.232Z,7.55
2023-02-02T15:08:55.342Z,7.59
2023-02-02T15:13:02.220Z,6.27
2023-02-02T15:16:56.589Z,5.92
2023-02-02T15:20:45.447Z,6.77
2023-02-02T15:24:34.079Z,7.43
2023-02-02T15:28:26.023Z,6.69
2023-02-02T15:32:17.948Z,5.43
2023-02-02T15:36:07.411Z,5.77
2023-02-02T15:40:01.045Z,7.21
2023-02-02T15:43:49.695Z,7.86
2023-02-02T15:47:37.246Z,6.90
2023-02-02T15:51:25.559Z,5.62
2023-02-02T15:55:32.999Z,5.87
2023-02-02T15:59:23.566Z,7.14
2023-02-02T16:03:18.197Z,7.63
2023-02-02T16:07:05.317Z,6.21
2023-02-02T16:10:54.116Z,5.61
2023-02-02T16:14:41.595Z,6.66
2023-02-02T16:18:29.003Z,7.49
2023-02-02T16:22:16.974Z,6.81
2023-02-02T16:26:05.181Z,5.36
2023-02-02T16:29:54.425Z,6.04
2023-02-02T16:33:40.514Z,6.70
2023-02-02T16:37:26.865Z,5.40
2023-02-02T16:41:17.486Z,5.14
2023-02-02T16:45:10.809Z,6.40
2023-02-02T16:48:58.413Z,6.35
2023-02-02T16:52:53.781Z,5.00
2023-02-02T16:56:44.344Z,5.28
2023-02-02T17:00:32.368Z,6.53
2023-02-02T17:04:24.119Z,5.81
2023-02-02T17:08:14.656Z,4.69
2023-02-02T17:12:09.308Z,5.07
2023-02-02T17:15:59.322Z,6.45
2023-02-02T17:19:47.047Z,6.55
2023-02-02T17:23:38.456Z,5.29
2023-02-02T17:27:28.619Z,5.02
2023-02-02T17:31:17.399Z,6.51
2023-02-02T17:35:04.520Z,6.41
2023-02-02T17:38:57.974Z,4.90
2023-02-02T17:43:08.626Z,5.06
2023-02-02T17:46:34.792Z,6.38
2023-02-02T17:50:22.279Z,6.31
2023-02-02T17:54:10.795Z,4.84
2023-02-02T17:57:57.693Z,4.09
2023-02-02T18:01:45.384Z,5.23
2023-02-02T18:05:31.858Z,5.95
2023-02-02T18:09:18.952Z,5.01
2023-02-02T18:13:05.855Z,3.94
2023-02-02T18:16:39.314Z,4.13
2023-02-02T18:20:25.639Z,5.59
2023-02-02T18:24:12.834Z,5.63
2023-02-02T18:27:42.478Z,4.55
2023-02-02T18:31:29.341Z,3.72
2023-02-02T18:35:01.316Z,4.69
2023-02-02T18:38:30.179Z,5.64
2023-02-02T18:42:16.724Z,4.97
2023-02-02T18:45:25.399Z,4.02
2023-02-02T18:49:12.492Z,4.16
2023-02-02T18:52:40.097Z,5.45
2023-02-02T18:56:07.413Z,6.21
2023-02-02T18:59:14.297Z,5.50
2023-02-02T19:02:41.475Z,4.48
2023-02-02T19:06:26.499Z,3.66
2023-02-02T19:09:36.387Z,4.11
2023-02-02T19:13:23.036Z,5.36
2023-02-02T19:16:19.517Z,6.15
2023-02-02T19:19:19.241Z,5.79
2023-02-02T19:22:01.737Z,4.82
2023-02-02T19:25:26.706Z,4.36
2023-02-02T19:29:08.357Z,5.56
2023-02-02T19:32:40.938Z,6.09
2023-02-02T19:35:47.932Z,4.70
2023-02-02T19:38:53.722Z,4.49
2023-02-02T19:41:43.893Z,5.64
2023-02-02T19:44:20.709Z,6.38
2023-02-02T19:47:01.456Z,6.31
2023-02-02T19:49:39.880Z,5.34
2023-02-02T19:52:37.565Z,4.50
2023-02-02T19:55:30.627Z,4.41
2023-02-02T19:58:26.634Z,5.59
2023-02-02T20:01:08.198Z,6.30
2023-02-02T20:04:17.731Z,6.50
2023-02-02T20:07:04.892Z,5.38
2023-02-02T20:09:56.753Z,4.42
2023-02-02T20:13:06.475Z,4.74
2023-02-02T20:15:54.719Z,5.69
2023-02-02T20:18:54.310Z,6.16
2023-02-02T20:21:56.312Z,6.36
2023-02-02T20:24:28.590Z,6.74
2023-02-02T20:27:06.735Z,6.32
2023-02-02T20:29:45.546Z,5.24
2023-02-02T20:32:30.623Z,4.37
2023-02-02T20:34:59.764Z,4.12
2023-02-02T20:37:34.027Z,5.03
2023-02-02T20:40:22.290Z,5.75
2023-02-02T20:43:01.355Z,6.20
2023-02-02T20:45:28.686Z,6.43
2023-02-02T20:48:16.819Z,6.77
2023-02-02T20:50:44.584Z,6.48
2023-02-02T20:53:14.907Z,5.41
2023-02-02T20:55:42.794Z,4.66
2023-02-02T20:58:12.306Z,5.15
2023-02-02T21:00:39.786Z,5.96
2023-02-02T21:03:07.227Z,6.56
2023-02-02T21:05:34.376Z,6.20
2023-02-02T21:08:03.286Z,5.18
2023-02-02T21:10:30.633Z,4.33
2023-02-02T21:12:57.691Z,4.32
2023-02-02T21:15:26.683Z,4.91
2023-02-02T21:17:54.580Z,5.41
2023-02-02T21:20:21.820Z,5.99
2023-02-02T21:22:52.139Z,6.51
2023-02-02T21:25:19.468Z,6.26
2023-02-02T21:27:46.489Z,5.12
2023-02-02T21:30:14.706Z,4.25
2023-02-02T21:32:42.102Z,4.27
2023-02-02T21:35:09.513Z,5.19
2023-02-02T21:37:37.947Z,5.93
2023-02-02T21:40:23.912Z,6.31
2023-02-02T21:42:52.858Z,6.02
2023-02-02T21:45:41.610Z,5.08
2023-02-02T21:48:28.832Z,4.34
2023-02-02T21:50:57.845Z,5.11
2023-02-02T21:53:27.284Z,5.70
2023-02-02T21:55:56.968Z,6.14
2023-02-02T21:58:28.858Z,6.43
2023-02-02T22:01:00.232Z,6.13
2023-02-02T22:03:34.249Z,5.07
2023-02-02T22:06:19.581Z,4.49
2023-02-02T22:08:49.252Z,5.21
2023-02-02T22:11:25.497Z,5.83
2023-02-02T22:13:56.031Z,6.42
2023-02-02T22:16:23.274Z,6.62
2023-02-02T22:18:51.227Z,5.95
2023-02-02T22:21:21.098Z,4.92
2023-02-02T22:23:48.515Z,4.12
2023-02-02T22:26:34.305Z,4.03
2023-02-02T22:29:12.857Z,4.96
2023-02-02T22:31:40.685Z,5.75
2023-02-02T22:34:07.956Z,6.24
2023-02-02T22:36:35.328Z,6.44
2023-02-02T22:39:02.397Z,5.82
2023-02-02T22:41:29.387Z,4.84
2023-02-02T22:43:56.219Z,4.13
2023-02-02T22:46:44.651Z,4.42
2023-02-02T22:49:15.062Z,5.16
2023-02-02T22:51:42.470Z,5.67
2023-02-02T22:54:10.046Z,6.23
2023-02-02T22:56:37.564Z,6.73
2023-02-02T22:59:04.898Z,7.01
2023-02-02T23:01:31.944Z,6.21
2023-02-02T23:03:58.807Z,5.13
2023-02-02T23:06:26.300Z,4.28
2023-02-02T23:08:53.214Z,4.00
2023-02-02T23:11:20.670Z,4.86
2023-02-02T23:13:47.878Z,5.60
2023-02-02T23:16:18.109Z,6.18
2023-02-02T23:18:55.626Z,6.41
2023-02-02T23:21:22.651Z,5.76
2023-02-02T23:23:50.074Z,4.83
2023-02-02T23:26:18.275Z,4.14
2023-02-02T23:29:25.819Z,3.93
2023-02-02T23:32:07.310Z,5.37
2023-02-02T23:34:54.927Z,6.37
2023-02-02T23:37:22.196Z,7.06
2023-02-02T23:39:49.080Z,6.88
2023-02-02T23:42:26.656Z,5.82
2023-02-02T23:44:55.827Z,4.81
2023-02-02T23:48:02.870Z,4.13
2023-02-02T23:50:31.368Z,4.10
2023-02-02T23:52:58.682Z,5.16
2023-02-02T23:55:26.126Z,6.03
2023-02-02T23:57:53.744Z,6.58
